Terminal Aerodrome Forecast
Issued by NWS Charleston, WV

Current Version | Previous Version | Graphics & Text | Print | Product List | Glossary On
Versions: 1 2 3 4 5 6 7 8 9 10 11 12 13 14 15 16 17 18 19 20 21 22 23 24
439
FTUS41 KRLX 220538
TAFEKN
TAF
KEKN 220538Z 2206/2306 00000KT P6SM FEW150
     FM220800 00000KT 4SM BR FEW001
     FM221000 00000KT 2SM BR SCT001
     FM221200 00000KT 5SM BR SCT003
     FM221300 25005KT P6SM SCT050
     FM230500 00000KT 4SM BR SCT050=

USA.gov is the U.S. government's official web portal to all federal, state and local government web resources and services.